sensor_id;sensor_type;location;lat;lon;timestamp;P1;durP1;ratioP1;P2;durP2;ratioP2
40322;SDS011;26030;51.164;17.100;2022-08-27T00:01:35;18.70;;;6.20;;
40322;SDS011;26030;51.164;17.100;2022-08-27T00:06:37;12.70;;;5.60;;
40322;SDS011;26030;51.164;17.100;2022-08-27T00:11:40;9.20;;;5.80;;
40322;SDS011;26030;51.164;17.100;2022-08-27T00:16:47;14.80;;;5.60;;
40322;SDS011;26030;51.164;17.100;2022-08-27T00:21:52;10.40;;;5.10;;
40322;SDS011;26030;51.164;17.100;2022-08-27T00:26:58;10.10;;;5.40;;
40322;SDS011;26030;51.164;17.100;2022-08-27T00:32:00;11.40;;;5.50;;
40322;SDS011;26030;51.164;17.100;2022-08-27T00:37:03;10.30;;;4.90;;
40322;SDS011;26030;51.164;17.100;2022-08-27T00:42:07;8.90;;;5.70;;
40322;SDS011;26030;51.164;17.100;2022-08-27T00:47:14;9.50;;;5.10;;
40322;SDS011;26030;51.164;17.100;2022-08-27T00:52:29;9.60;;;5.40;;
40322;SDS011;26030;51.164;17.100;2022-08-27T00:57:37;11.10;;;5.30;;
40322;SDS011;26030;51.164;17.100;2022-08-27T01:02:44;10.20;;;5.30;;
40322;SDS011;26030;51.164;17.100;2022-08-27T01:07:56;7.20;;;4.70;;
40322;SDS011;26030;51.164;17.100;2022-08-27T01:13:00;11.10;;;4.40;;
40322;SDS011;26030;51.164;17.100;2022-08-27T01:18:05;9.70;;;4.90;;
40322;SDS011;26030;51.164;17.100;2022-08-27T01:23:31;8.80;;;4.80;;
40322;SDS011;26030;51.164;17.100;2022-08-27T01:28:36;9.60;;;4.90;;
40322;SDS011;26030;51.164;17.100;2022-08-27T01:33:59;6.80;;;4.10;;
40322;SDS011;26030;51.164;17.100;2022-08-27T01:39:07;12.30;;;5.00;;
40322;SDS011;26030;51.164;17.100;2022-08-27T01:44:10;9.40;;;4.80;;
40322;SDS011;26030;51.164;17.100;2022-08-27T01:49:12;7.70;;;4.00;;
40322;SDS011;26030;51.164;17.100;2022-08-27T01:54:14;10.10;;;4.50;;
40322;SDS011;26030;51.164;17.100;2022-08-27T01:59:17;11.60;;;4.60;;
40322;SDS011;26030;51.164;17.100;2022-08-27T02:04:23;9.60;;;4.90;;
40322;SDS011;26030;51.164;17.100;2022-08-27T02:09:25;14.20;;;5.30;;
40322;SDS011;26030;51.164;17.100;2022-08-27T02:14:29;9.70;;;5.20;;
40322;SDS011;26030;51.164;17.100;2022-08-27T02:19:32;10.30;;;5.10;;
40322;SDS011;26030;51.164;17.100;2022-08-27T02:24:34;8.00;;;4.60;;
40322;SDS011;26030;51.164;17.100;2022-08-27T02:29:37;7.70;;;5.00;;
40322;SDS011;26030;51.164;17.100;2022-08-27T02:34:39;10.00;;;4.60;;
40322;SDS011;26030;51.164;17.100;2022-08-27T02:39:42;8.70;;;5.00;;
40322;SDS011;26030;51.164;17.100;2022-08-27T02:44:48;10.90;;;5.20;;
40322;SDS011;26030;51.164;17.100;2022-08-27T02:49:50;11.40;;;5.40;;
40322;SDS011;26030;51.164;17.100;2022-08-27T02:54:56;12.10;;;5.60;;
40322;SDS011;26030;51.164;17.100;2022-08-27T02:59:59;8.60;;;5.50;;
40322;SDS011;26030;51.164;17.100;2022-08-27T03:05:02;10.20;;;5.20;;
40322;SDS011;26030;51.164;17.100;2022-08-27T03:10:05;6.90;;;4.90;;
40322;SDS011;26030;51.164;17.100;2022-08-27T03:15:12;10.20;;;5.00;;
40322;SDS011;26030;51.164;17.100;2022-08-27T03:20:14;9.90;;;5.30;;
40322;SDS011;26030;51.164;17.100;2022-08-27T03:25:17;7.70;;;5.40;;
40322;SDS011;26030;51.164;17.100;2022-08-27T03:30:22;9.60;;;4.70;;
40322;SDS011;26030;51.164;17.100;2022-08-27T03:35:25;7.60;;;5.00;;
40322;SDS011;26030;51.164;17.100;2022-08-27T03:40:28;9.50;;;4.70;;
40322;SDS011;26030;51.164;17.100;2022-08-27T03:45:30;6.80;;;5.10;;
40322;SDS011;26030;51.164;17.100;2022-08-27T03:50:53;9.20;;;4.70;;
40322;SDS011;26030;51.164;17.100;2022-08-27T03:55:55;11.00;;;4.80;;
40322;SDS011;26030;51.164;17.100;2022-08-27T04:00:58;9.40;;;4.50;;
40322;SDS011;26030;51.164;17.100;2022-08-27T04:06:01;7.00;;;4.40;;
40322;SDS011;26030;51.164;17.100;2022-08-27T04:11:05;8.90;;;4.60;;
40322;SDS011;26030;51.164;17.100;2022-08-27T04:16:07;7.40;;;4.90;;
40322;SDS011;26030;51.164;17.100;2022-08-27T04:21:11;8.70;;;5.50;;
40322;SDS011;26030;51.164;17.100;2022-08-27T04:26:14;7.70;;;4.70;;
40322;SDS011;26030;51.164;17.100;2022-08-27T04:31:18;7.70;;;4.80;;
40322;SDS011;26030;51.164;17.100;2022-08-27T04:36:27;8.00;;;5.10;;
40322;SDS011;26030;51.164;17.100;2022-08-27T04:41:30;6.20;;;4.40;;
40322;SDS011;26030;51.164;17.100;2022-08-27T04:46:36;8.60;;;5.30;;
40322;SDS011;26030;51.164;17.100;2022-08-27T04:51:40;12.70;;;6.00;;
40322;SDS011;26030;51.164;17.100;2022-08-27T04:56:59;8.50;;;5.00;;
40322;SDS011;26030;51.164;17.100;2022-08-27T05:02:06;7.40;;;4.70;;
40322;SDS011;26030;51.164;17.100;2022-08-27T05:07:10;12.90;;;5.00;;
40322;SDS011;26030;51.164;17.100;2022-08-27T05:12:12;10.40;;;5.20;;
40322;SDS011;26030;51.164;17.100;2022-08-27T05:17:14;9.50;;;5.10;;
40322;SDS011;26030;51.164;17.100;2022-08-27T05:22:16;7.30;;;5.20;;
40322;SDS011;26030;51.164;17.100;2022-08-27T05:27:19;8.50;;;5.30;;
40322;SDS011;26030;51.164;17.100;2022-08-27T05:32:21;7.70;;;5.90;;
40322;SDS011;26030;51.164;17.100;2022-08-27T05:37:23;7.70;;;5.30;;
40322;SDS011;26030;51.164;17.100;2022-08-27T05:42:27;9.10;;;5.50;;
40322;SDS011;26030;51.164;17.100;2022-08-27T05:47:30;8.90;;;5.40;;
40322;SDS011;26030;51.164;17.100;2022-08-27T05:52:38;7.80;;;5.60;;
40322;SDS011;26030;51.164;17.100;2022-08-27T05:57:41;6.40;;;4.90;;
40322;SDS011;26030;51.164;17.100;2022-08-27T06:02:44;7.40;;;5.10;;
40322;SDS011;26030;51.164;17.100;2022-08-27T06:07:47;7.80;;;5.30;;
40322;SDS011;26030;51.164;17.100;2022-08-27T06:12:49;9.60;;;5.60;;
40322;SDS011;26030;51.164;17.100;2022-08-27T06:17:58;9.60;;;6.30;;
40322;SDS011;26030;51.164;17.100;2022-08-27T06:23:02;10.20;;;5.70;;
40322;SDS011;26030;51.164;17.100;2022-08-27T06:28:05;8.60;;;5.40;;
40322;SDS011;26030;51.164;17.100;2022-08-27T06:33:08;7.90;;;5.30;;
40322;SDS011;26030;51.164;17.100;2022-08-27T06:38:11;8.10;;;5.50;;
40322;SDS011;26030;51.164;17.100;2022-08-27T06:43:14;11.30;;;5.40;;
40322;SDS011;26030;51.164;17.100;2022-08-27T06:48:18;14.50;;;6.00;;
40322;SDS011;26030;51.164;17.100;2022-08-27T06:53:21;9.70;;;5.70;;
40322;SDS011;26030;51.164;17.100;2022-08-27T06:58:25;9.30;;;5.70;;
40322;SDS011;26030;51.164;17.100;2022-08-27T07:03:28;9.70;;;5.90;;
40322;SDS011;26030;51.164;17.100;2022-08-27T07:08:32;12.00;;;6.60;;
40322;SDS011;26030;51.164;17.100;2022-08-27T07:13:42;9.80;;;5.90;;
40322;SDS011;26030;51.164;17.100;2022-08-27T07:18:50;10.50;;;6.20;;
40322;SDS011;26030;51.164;17.100;2022-08-27T07:23:54;9.50;;;6.00;;
40322;SDS011;26030;51.164;17.100;2022-08-27T07:29:05;8.30;;;5.70;;
40322;SDS011;26030;51.164;17.100;2022-08-27T07:34:08;12.00;;;5.90;;
40322;SDS011;26030;51.164;17.100;2022-08-27T07:39:14;11.50;;;6.10;;
40322;SDS011;26030;51.164;17.100;2022-08-27T07:44:19;15.90;;;7.10;;
40322;SDS011;26030;51.164;17.100;2022-08-27T07:49:32;10.80;;;6.60;;
40322;SDS011;26030;51.164;17.100;2022-08-27T07:54:36;11.00;;;6.40;;
40322;SDS011;26030;51.164;17.100;2022-08-27T07:59:40;10.80;;;6.10;;
40322;SDS011;26030;51.164;17.100;2022-08-27T08:04:44;13.00;;;6.90;;
40322;SDS011;26030;51.164;17.100;2022-08-27T08:09:48;9.80;;;6.40;;
40322;SDS011;26030;51.164;17.100;2022-08-27T08:15:03;12.00;;;6.40;;
40322;SDS011;26030;51.164;17.100;2022-08-27T08:20:09;12.70;;;6.30;;
40322;SDS011;26030;51.164;17.100;2022-08-27T08:25:34;14.20;;;6.70;;
40322;SDS011;26030;51.164;17.100;2022-08-27T08:30:42;10.00;;;6.40;;
40322;SDS011;26030;51.164;17.100;2022-08-27T08:35:45;11.90;;;7.10;;
40322;SDS011;26030;51.164;17.100;2022-08-27T08:40:50;9.80;;;6.70;;
40322;SDS011;26030;51.164;17.100;2022-08-27T08:45:59;10.20;;;5.90;;
40322;SDS011;26030;51.164;17.100;2022-08-27T08:51:15;13.40;;;6.80;;
40322;SDS011;26030;51.164;17.100;2022-08-27T08:56:29;9.10;;;6.10;;
40322;SDS011;26030;51.164;17.100;2022-08-27T09:01:32;14.20;;;6.20;;
40322;SDS011;26030;51.164;17.100;2022-08-27T09:06:38;9.90;;;5.80;;
40322;SDS011;26030;51.164;17.100;2022-08-27T09:11:54;10.00;;;6.40;;
40322;SDS011;26030;51.164;17.100;2022-08-27T09:17:00;11.00;;;6.20;;
40322;SDS011;26030;51.164;17.100;2022-08-27T09:27:41;10.40;;;7.80;;
40322;SDS011;26030;51.164;17.100;2022-08-27T09:32:44;13.90;;;7.20;;
40322;SDS011;26030;51.164;17.100;2022-08-27T09:37:53;14.80;;;7.20;;
40322;SDS011;26030;51.164;17.100;2022-08-27T09:43:27;14.20;;;7.50;;
40322;SDS011;26030;51.164;17.100;2022-08-27T09:48:36;15.00;;;6.70;;
40322;SDS011;26030;51.164;17.100;2022-08-27T09:53:55;10.20;;;6.90;;
40322;SDS011;26030;51.164;17.100;2022-08-27T09:59:06;17.60;;;7.30;;
40322;SDS011;26030;51.164;17.100;2022-08-27T10:04:15;24.80;;;7.60;;
40322;SDS011;26030;51.164;17.100;2022-08-27T10:09:20;16.90;;;6.40;;
40322;SDS011;26030;51.164;17.100;2022-08-27T10:14:33;15.00;;;6.90;;
40322;SDS011;26030;51.164;17.100;2022-08-27T10:30:27;14.30;;;5.90;;
40322;SDS011;26030;51.164;17.100;2022-08-27T10:41:21;12.40;;;5.10;;
40322;SDS011;26030;51.164;17.100;2022-08-27T10:52:04;13.30;;;5.60;;
40322;SDS011;26030;51.164;17.100;2022-08-27T10:57:53;11.30;;;5.20;;
40322;SDS011;26030;51.164;17.100;2022-08-27T11:03:23;11.40;;;5.20;;
40322;SDS011;26030;51.164;17.100;2022-08-27T11:08:39;8.90;;;6.20;;
40322;SDS011;26030;51.164;17.100;2022-08-27T11:13:46;10.40;;;5.50;;
40322;SDS011;26030;51.164;17.100;2022-08-27T11:18:52;7.90;;;4.50;;
40322;SDS011;26030;51.164;17.100;2022-08-27T11:24:12;8.80;;;4.90;;
40322;SDS011;26030;51.164;17.100;2022-08-27T11:29:26;6.90;;;4.50;;
40322;SDS011;26030;51.164;17.100;2022-08-27T11:45:04;15.10;;;9.50;;
40322;SDS011;26030;51.164;17.100;2022-08-27T11:50:17;46.80;;;33.30;;
40322;SDS011;26030;51.164;17.100;2022-08-27T12:10:54;22.40;;;14.60;;
40322;SDS011;26030;51.164;17.100;2022-08-27T12:26:34;16.00;;;12.00;;
40322;SDS011;26030;51.164;17.100;2022-08-27T12:31:40;15.80;;;10.10;;
40322;SDS011;26030;51.164;17.100;2022-08-27T12:36:47;13.40;;;8.90;;
40322;SDS011;26030;51.164;17.100;2022-08-27T12:41:55;14.90;;;8.80;;
40322;SDS011;26030;51.164;17.100;2022-08-27T12:47:03;9.80;;;7.10;;
40322;SDS011;26030;51.164;17.100;2022-08-27T12:52:50;7.30;;;6.30;;
40322;SDS011;26030;51.164;17.100;2022-08-27T13:03:31;14.70;;;7.30;;
40322;SDS011;26030;51.164;17.100;2022-08-27T13:08:35;11.30;;;6.30;;
40322;SDS011;26030;51.164;17.100;2022-08-27T13:13:37;8.00;;;5.50;;
40322;SDS011;26030;51.164;17.100;2022-08-27T13:18:40;18.70;;;6.00;;
40322;SDS011;26030;51.164;17.100;2022-08-27T13:24:04;10.50;;;5.10;;
40322;SDS011;26030;51.164;17.100;2022-08-27T13:29:07;9.00;;;5.70;;
40322;SDS011;26030;51.164;17.100;2022-08-27T13:34:16;10.20;;;5.50;;
40322;SDS011;26030;51.164;17.100;2022-08-27T13:39:20;16.20;;;5.60;;
40322;SDS011;26030;51.164;17.100;2022-08-27T13:44:26;8.60;;;5.20;;
40322;SDS011;26030;51.164;17.100;2022-08-27T13:49:31;11.00;;;4.80;;
40322;SDS011;26030;51.164;17.100;2022-08-27T13:54:50;8.20;;;4.40;;
40322;SDS011;26030;51.164;17.100;2022-08-27T13:59:54;7.50;;;4.50;;
40322;SDS011;26030;51.164;17.100;2022-08-27T14:10:33;7.70;;;4.20;;
40322;SDS011;26030;51.164;17.100;2022-08-27T14:15:39;8.60;;;4.70;;
40322;SDS011;26030;51.164;17.100;2022-08-27T14:20:41;11.20;;;4.50;;
40322;SDS011;26030;51.164;17.100;2022-08-27T14:25:44;10.20;;;4.80;;
40322;SDS011;26030;51.164;17.100;2022-08-27T14:30:47;9.50;;;4.60;;
40322;SDS011;26030;51.164;17.100;2022-08-27T14:35:55;8.60;;;4.30;;
40322;SDS011;26030;51.164;17.100;2022-08-27T14:40:57;8.10;;;4.90;;
40322;SDS011;26030;51.164;17.100;2022-08-27T14:46:00;8.00;;;4.30;;
40322;SDS011;26030;51.164;17.100;2022-08-27T14:51:10;6.40;;;4.50;;
40322;SDS011;26030;51.164;17.100;2022-08-27T14:56:17;8.90;;;5.00;;
40322;SDS011;26030;51.164;17.100;2022-08-27T15:01:22;8.90;;;4.90;;
40322;SDS011;26030;51.164;17.100;2022-08-27T15:06:25;6.40;;;4.30;;
40322;SDS011;26030;51.164;17.100;2022-08-27T15:11:31;8.10;;;4.90;;
40322;SDS011;26030;51.164;17.100;2022-08-27T15:16:39;8.10;;;4.50;;
40322;SDS011;26030;51.164;17.100;2022-08-27T15:21:44;6.20;;;4.40;;
40322;SDS011;26030;51.164;17.100;2022-08-27T15:26:49;6.90;;;4.60;;
40322;SDS011;26030;51.164;17.100;2022-08-27T15:31:52;8.50;;;4.90;;
40322;SDS011;26030;51.164;17.100;2022-08-27T15:36:55;8.90;;;4.40;;
40322;SDS011;26030;51.164;17.100;2022-08-27T15:41:58;7.90;;;4.70;;
40322;SDS011;26030;51.164;17.100;2022-08-27T15:47:08;7.70;;;4.60;;
40322;SDS011;26030;51.164;17.100;2022-08-27T15:52:12;7.80;;;4.60;;
40322;SDS011;26030;51.164;17.100;2022-08-27T15:57:18;6.40;;;4.80;;
40322;SDS011;26030;51.164;17.100;2022-08-27T16:02:22;5.80;;;4.30;;
40322;SDS011;26030;51.164;17.100;2022-08-27T16:07:25;8.00;;;4.50;;
40322;SDS011;26030;51.164;17.100;2022-08-27T16:12:29;6.50;;;4.90;;
40322;SDS011;26030;51.164;17.100;2022-08-27T16:17:31;6.80;;;5.10;;
40322;SDS011;26030;51.164;17.100;2022-08-27T16:22:34;6.80;;;5.10;;
40322;SDS011;26030;51.164;17.100;2022-08-27T16:27:36;5.90;;;4.70;;
40322;SDS011;26030;51.164;17.100;2022-08-27T16:32:40;5.60;;;4.40;;
40322;SDS011;26030;51.164;17.100;2022-08-27T16:37:43;6.80;;;5.00;;
40322;SDS011;26030;51.164;17.100;2022-08-27T16:42:53;6.20;;;4.90;;
40322;SDS011;26030;51.164;17.100;2022-08-27T16:47:56;5.80;;;4.70;;
40322;SDS011;26030;51.164;17.100;2022-08-27T16:53:20;7.30;;;4.90;;
40322;SDS011;26030;51.164;17.100;2022-08-27T16:58:29;6.10;;;5.00;;
40322;SDS011;26030;51.164;17.100;2022-08-27T17:04:00;6.20;;;4.90;;
40322;SDS011;26030;51.164;17.100;2022-08-27T17:09:23;6.80;;;5.10;;
40322;SDS011;26030;51.164;17.100;2022-08-27T17:14:29;7.60;;;4.80;;
40322;SDS011;26030;51.164;17.100;2022-08-27T17:19:33;5.60;;;4.40;;
40322;SDS011;26030;51.164;17.100;2022-08-27T17:24:39;8.30;;;4.80;;
40322;SDS011;26030;51.164;17.100;2022-08-27T17:29:43;7.30;;;4.80;;
40322;SDS011;26030;51.164;17.100;2022-08-27T17:34:47;9.60;;;4.90;;
40322;SDS011;26030;51.164;17.100;2022-08-27T17:39:51;6.20;;;4.90;;
40322;SDS011;26030;51.164;17.100;2022-08-27T17:44:56;5.60;;;4.60;;
40322;SDS011;26030;51.164;17.100;2022-08-27T17:50:01;9.10;;;4.90;;
40322;SDS011;26030;51.164;17.100;2022-08-27T17:55:05;6.80;;;4.70;;
40322;SDS011;26030;51.164;17.100;2022-08-27T18:00:11;7.10;;;5.10;;
40322;SDS011;26030;51.164;17.100;2022-08-27T18:05:18;9.00;;;4.90;;
40322;SDS011;26030;51.164;17.100;2022-08-27T18:10:24;7.70;;;4.70;;
40322;SDS011;26030;51.164;17.100;2022-08-27T18:15:31;5.80;;;5.20;;
40322;SDS011;26030;51.164;17.100;2022-08-27T18:20:35;6.80;;;4.70;;
40322;SDS011;26030;51.164;17.100;2022-08-27T18:25:44;6.00;;;5.00;;
40322;SDS011;26030;51.164;17.100;2022-08-27T18:30:51;9.30;;;5.60;;
40322;SDS011;26030;51.164;17.100;2022-08-27T18:35:57;6.60;;;5.20;;
40322;SDS011;26030;51.164;17.100;2022-08-27T18:41:00;6.00;;;5.20;;
40322;SDS011;26030;51.164;17.100;2022-08-27T18:46:05;7.00;;;5.70;;
40322;SDS011;26030;51.164;17.100;2022-08-27T18:51:12;8.50;;;5.70;;
40322;SDS011;26030;51.164;17.100;2022-08-27T18:56:18;7.70;;;5.90;;
40322;SDS011;26030;51.164;17.100;2022-08-27T19:01:24;8.90;;;5.30;;
40322;SDS011;26030;51.164;17.100;2022-08-27T19:06:28;11.60;;;5.70;;
40322;SDS011;26030;51.164;17.100;2022-08-27T19:11:32;8.50;;;5.60;;
40322;SDS011;26030;51.164;17.100;2022-08-27T19:16:42;9.10;;;5.70;;
40322;SDS011;26030;51.164;17.100;2022-08-27T19:21:48;7.90;;;5.40;;
40322;SDS011;26030;51.164;17.100;2022-08-27T19:26:54;7.90;;;5.70;;
40322;SDS011;26030;51.164;17.100;2022-08-27T19:32:04;9.70;;;5.70;;
40322;SDS011;26030;51.164;17.100;2022-08-27T19:37:49;10.50;;;6.70;;
40322;SDS011;26030;51.164;17.100;2022-08-27T19:42:56;7.80;;;6.20;;
40322;SDS011;26030;51.164;17.100;2022-08-27T19:48:00;9.90;;;6.20;;
40322;SDS011;26030;51.164;17.100;2022-08-27T19:53:04;7.90;;;6.10;;
40322;SDS011;26030;51.164;17.100;2022-08-27T19:58:08;8.20;;;6.50;;
40322;SDS011;26030;51.164;17.100;2022-08-27T20:03:13;8.80;;;6.20;;
40322;SDS011;26030;51.164;17.100;2022-08-27T20:08:18;8.20;;;6.00;;
40322;SDS011;26030;51.164;17.100;2022-08-27T20:13:26;10.00;;;6.10;;
40322;SDS011;26030;51.164;17.100;2022-08-27T20:18:35;7.90;;;6.20;;
40322;SDS011;26030;51.164;17.100;2022-08-27T20:23:41;8.10;;;5.30;;
40322;SDS011;26030;51.164;17.100;2022-08-27T20:28:45;8.10;;;6.10;;
40322;SDS011;26030;51.164;17.100;2022-08-27T20:33:52;8.70;;;5.90;;
40322;SDS011;26030;51.164;17.100;2022-08-27T20:39:03;9.20;;;5.80;;
40322;SDS011;26030;51.164;17.100;2022-08-27T20:44:16;7.90;;;5.90;;
40322;SDS011;26030;51.164;17.100;2022-08-27T20:49:21;7.60;;;5.60;;
40322;SDS011;26030;51.164;17.100;2022-08-27T20:54:33;6.60;;;5.30;;
40322;SDS011;26030;51.164;17.100;2022-08-27T20:59:44;9.90;;;5.80;;
40322;SDS011;26030;51.164;17.100;2022-08-27T21:05:14;7.70;;;5.30;;
40322;SDS011;26030;51.164;17.100;2022-08-27T21:10:24;7.40;;;5.10;;
40322;SDS011;26030;51.164;17.100;2022-08-27T21:15:29;10.50;;;5.60;;
40322;SDS011;26030;51.164;17.100;2022-08-27T21:20:33;7.60;;;5.60;;
40322;SDS011;26030;51.164;17.100;2022-08-27T21:25:37;7.60;;;5.80;;
40322;SDS011;26030;51.164;17.100;2022-08-27T21:30:41;8.70;;;5.30;;
40322;SDS011;26030;51.164;17.100;2022-08-27T21:35:45;9.30;;;5.20;;
40322;SDS011;26030;51.164;17.100;2022-08-27T21:40:49;8.80;;;6.20;;
40322;SDS011;26030;51.164;17.100;2022-08-27T21:45:54;10.70;;;6.10;;
40322;SDS011;26030;51.164;17.100;2022-08-27T21:51:06;8.50;;;6.30;;
40322;SDS011;26030;51.164;17.100;2022-08-27T21:56:10;8.80;;;6.40;;
40322;SDS011;26030;51.164;17.100;2022-08-27T22:01:14;7.60;;;6.20;;
40322;SDS011;26030;51.164;17.100;2022-08-27T22:06:18;11.20;;;6.80;;
40322;SDS011;26030;51.164;17.100;2022-08-27T22:11:22;8.00;;;5.90;;
40322;SDS011;26030;51.164;17.100;2022-08-27T22:16:27;8.30;;;6.50;;
40322;SDS011;26030;51.164;17.100;2022-08-27T22:21:31;9.50;;;6.90;;
40322;SDS011;26030;51.164;17.100;2022-08-27T22:26:35;8.90;;;7.10;;
40322;SDS011;26030;51.164;17.100;2022-08-27T22:31:39;9.00;;;7.00;;
40322;SDS011;26030;51.164;17.100;2022-08-27T22:36:45;10.30;;;7.30;;
40322;SDS011;26030;51.164;17.100;2022-08-27T22:47:03;9.20;;;7.60;;
40322;SDS011;26030;51.164;17.100;2022-08-27T22:52:09;10.10;;;7.60;;
40322;SDS011;26030;51.164;17.100;2022-08-27T22:57:17;9.10;;;7.70;;
40322;SDS011;26030;51.164;17.100;2022-08-27T23:02:27;10.50;;;8.30;;
40322;SDS011;26030;51.164;17.100;2022-08-27T23:07:34;10.80;;;8.50;;
40322;SDS011;26030;51.164;17.100;2022-08-27T23:12:39;10.00;;;8.90;;
40322;SDS011;26030;51.164;17.100;2022-08-27T23:17:48;9.30;;;8.20;;
40322;SDS011;26030;51.164;17.100;2022-08-27T23:23:00;11.40;;;9.20;;
40322;SDS011;26030;51.164;17.100;2022-08-27T23:28:05;13.90;;;9.30;;
40322;SDS011;26030;51.164;17.100;2022-08-27T23:33:17;11.50;;;9.70;;
40322;SDS011;26030;51.164;17.100;2022-08-27T23:38:23;10.70;;;9.50;;
40322;SDS011;26030;51.164;17.100;2022-08-27T23:43:27;11.60;;;9.90;;
40322;SDS011;26030;51.164;17.100;2022-08-27T23:48:33;11.10;;;9.90;;
40322;SDS011;26030;51.164;17.100;2022-08-27T23:53:38;13.40;;;11.20;;
40322;SDS011;26030;51.164;17.100;2022-08-27T23:58:42;13.20;;;11.50;;
